Herrljunga Airport


Codes: ESGH/
Name: Herrljunga Airport
City: Herrljunga
Country: Sweden
Elevation: 0 ft.

Photos at Herrljunga Airport


   Photos courtesy of SpottingLog. You can add your own sightings and photos by signing up for a free trial today.



No photos found.

Weather at Herrljunga Airport


Time (UTC)DescriptionTempratureWindCloud coverageVisibilityPressureHumidity
26-Jun-2024 00:00Clear Sky13°C4 mph, S0%10000m1019hPa77%
26-Jun-2024 03:00Clear Sky13°C4 mph, S0%10000m1019hPa80%
26-Jun-2024 06:00Clear Sky17°C4 mph, SW0%10000m1018hPa68%
26-Jun-2024 09:00Clear Sky23°C4 mph, SW0%10000m1017hPa47%
26-Jun-2024 12:00Clear Sky27°C4 mph, SW0%10000m1015hPa35%
26-Jun-2024 15:00Clear Sky27°C4 mph, SW0%10000m1014hPa32%
26-Jun-2024 18:00Clear Sky23°C4 mph, NW0%10000m1014hPa55%
26-Jun-2024 21:00Clear Sky16°C2 mph, NW0%10000m1015hPa78%
27-Jun-2024 00:00Clear Sky14°C0 mph, SE0%10000m1015hPa82%
27-Jun-2024 03:00Clear Sky14°C2 mph, E0%10000m1014hPa82%
27-Jun-2024 06:00Clear Sky20°C2 mph, SE0%10000m1014hPa60%
27-Jun-2024 09:00Clear Sky26°C7 mph, SE0%10000m1012hPa47%
27-Jun-2024 12:00Few Clouds28°C13 mph, SE12%10000m1011hPa42%
27-Jun-2024 15:00Broken Clouds28°C9 mph, S57%10000m1010hPa39%
27-Jun-2024 18:00Broken Clouds25°C4 mph, SE56%10000m1008hPa56%
27-Jun-2024 21:00Few Clouds19°C7 mph, SE20%10000m1008hPa74%
28-Jun-2024 00:00Few Clouds18°C9 mph, SE24%10000m1007hPa82%
28-Jun-2024 03:00Light Rain16°C7 mph, S38%10000m1005hPa98%
28-Jun-2024 06:00Light Rain18°C7 mph, S69%10000m1005hPa95%
28-Jun-2024 09:00Light Rain20°C11 mph, SW100%10000m1005hPa80%
28-Jun-2024 12:00Light Rain15°C9 mph, SW92%10000m1007hPa95%
28-Jun-2024 15:00Light Rain19°C16 mph, SW43%10000m1007hPa61%
28-Jun-2024 18:00Light Rain15°C11 mph, SW26%10000m1009hPa87%
28-Jun-2024 21:00Light Rain13°C13 mph, SW30%10000m1010hPa83%
29-Jun-2024 00:00Light Rain13°C13 mph, SW64%10000m1012hPa74%
29-Jun-2024 03:00Broken Clouds13°C11 mph, SW75%10000m1013hPa73%
29-Jun-2024 06:00Broken Clouds14°C11 mph, SW81%10000m1015hPa68%
29-Jun-2024 09:00Overcast Clouds18°C11 mph, SW98%10000m1014hPa46%
29-Jun-2024 12:00Overcast Clouds20°C11 mph, SW99%10000m1014hPa46%
29-Jun-2024 15:00Overcast Clouds19°C9 mph, SW100%10000m1013hPa52%
29-Jun-2024 18:00Broken Clouds18°C7 mph, SW73%10000m1013hPa60%
29-Jun-2024 21:00Scattered Clouds12°C4 mph, S26%10000m1013hPa80%
30-Jun-2024 00:00Broken Clouds11°C4 mph, SE52%10000m1012hPa86%
30-Jun-2024 03:00Overcast Clouds13°C4 mph, SE95%10000m1010hPa78%
30-Jun-2024 06:00Overcast Clouds16°C7 mph, E98%10000m1007hPa65%
30-Jun-2024 09:00Moderate Rain12°C11 mph, E100%5692m1004hPa98%
30-Jun-2024 12:00Moderate Rain13°C11 mph, E100%10000m1001hPa98%
30-Jun-2024 15:00Overcast Clouds18°C7 mph, SE100%10000m998hPa94%
30-Jun-2024 18:00Light Rain19°C11 mph, S100%10000m996hPa93%
30-Jun-2024 21:00Light Rain15°C13 mph, S81%10000m997hPa91%